Time;durP1;ratioP1;P1;durP2;ratioP2;P2;SDS_P1;SDS_P2;PMS_P1;PMS_P2;Temp;Humidity;BMP_temperature;BMP_pressure;BME280_temperature;BME280_humidity;BME280_pressure;Samples;Min_cycle;Max_cycle;Signal;HPM_P1;HPM_P2
2023/09/06 00:00:32;;;;;;;0.70;0.50;;;;;;;22.25;43.90;101747.66;4990347;28;20390;-82
2023/09/06 00:03:03;;;;;;;0.50;0.50;;;;;;;22.33;43.79;101742.03;4972460;28;20927;-83
2023/09/06 00:05:30;;;;;;;0.40;0.40;;;;;;;22.35;43.59;101739.09;4989849;28;20481;-84
2023/09/06 00:07:56;;;;;;;0.47;0.47;;;;;;;22.34;43.60;101740.13;4989138;28;20397;-84
2023/09/06 00:10:21;;;;;;;0.67;0.67;;;;;;;22.41;43.71;101734.66;4990274;28;20500;-83
2023/09/06 00:12:47;;;;;;;0.43;0.40;;;;;;;22.34;43.38;101737.44;4990566;28;20418;-82
2023/09/06 00:15:15;;;;;;;0.53;0.40;;;;;;;22.39;43.25;101744.88;4990370;28;20834;-82
2023/09/06 00:17:41;;;;;;;0.40;0.30;;;;;;;22.56;42.94;101740.53;4989278;28;20409;-81
2023/09/06 00:23:04;;;;;;;0.52;0.43;;;;;;;22.59;42.92;101752.78;4930207;29;20509;-83
2023/09/06 00:25:35;;;;;;;0.40;0.32;;;;;;;22.58;42.96;101748.41;4989757;28;20390;-82
2023/09/06 00:28:04;;;;;;;0.60;0.50;;;;;;;22.60;42.86;101749.84;4976239;28;20448;-82
2023/09/06 00:30:29;;;;;;;0.20;0.20;;;;;;;22.54;42.68;101750.72;4994537;28;20386;-82
2023/09/06 00:33:52;;;;;;;0.53;0.40;;;;;;;22.53;42.70;101744.50;5009157;28;20409;-83
2023/09/06 00:36:18;;;;;;;0.60;0.50;;;;;;;22.55;42.71;101755.09;4933874;29;20399;-80
2023/09/06 00:38:43;;;;;;;0.43;0.37;;;;;;;22.53;42.37;101757.19;4933686;29;20406;-81
2023/09/06 00:41:10;;;;;;;0.50;0.40;;;;;;;22.55;42.48;101754.28;4961246;28;20432;-82
2023/09/06 00:43:35;;;;;;;0.50;0.40;;;;;;;22.45;42.42;101758.28;4976315;28;20405;-83
2023/09/06 00:46:07;;;;;;;0.57;0.40;;;;;;;22.40;42.65;101752.75;4993945;28;20377;-80
2023/09/06 00:48:36;;;;;;;0.52;0.30;;;;;;;22.31;42.92;101760.31;4992451;28;20421;-80
2023/09/06 00:51:04;;;;;;;0.50;0.38;;;;;;;22.28;43.01;101765.34;5008763;28;20485;-80
2023/09/06 00:53:30;;;;;;;0.40;0.30;;;;;;;22.24;42.96;101772.22;4959948;28;20429;-82
2023/09/06 00:55:59;;;;;;;0.45;0.30;;;;;;;22.09;43.42;101762.59;4990978;28;20787;-81
2023/09/06 00:58:32;;;;;;;0.52;0.43;;;;;;;22.06;43.59;101775.69;4991092;28;20398;-82
2023/09/06 01:00:58;;;;;;;0.30;0.30;;;;;;;21.80;44.17;101764.03;4959752;28;20989;-80
2023/09/06 01:03:30;;;;;;;0.47;0.30;;;;;;;21.79;44.17;101764.25;4991657;28;20390;-81
2023/09/06 01:06:04;;;;;;;0.40;0.37;;;;;;;21.80;44.14;101763.22;4990948;28;20504;-81
2023/09/06 01:08:37;;;;;;;0.43;0.30;;;;;;;21.95;43.83;101764.56;4942964;28;20916;-81
2023/09/06 01:11:21;;;;;;;1.60;1.00;;;;;;;21.97;43.72;101758.94;5007107;28;20441;-82
2023/09/06 01:14:02;;;;;;;0.68;0.60;;;;;;;22.00;43.64;101758.47;4991234;28;20401;-81
2023/09/06 01:16:32;;;;;;;0.50;0.32;;;;;;;22.06;43.56;101759.50;4990946;28;20565;-80
2023/09/06 01:18:59;;;;;;;0.50;0.38;;;;;;;22.06;43.23;101764.91;4990963;28;20456;-80
2023/09/06 01:21:33;;;;;;;0.70;0.60;;;;;;;22.08;43.45;101758.22;4958301;28;20440;-79
2023/09/06 01:24:02;;;;;;;0.57;0.52;;;;;;;22.07;43.41;101756.56;4990659;28;20401;-80
2023/09/06 01:26:32;;;;;;;0.30;0.30;;;;;;;22.04;43.57;101764.28;4991225;28;20746;-81
2023/09/06 01:28:58;;;;;;;0.50;0.50;;;;;;;21.99;43.75;101762.25;4975632;28;20819;-82
2023/09/06 01:31:27;;;;;;;1.00;0.70;;;;;;;21.93;43.74;101755.88;4992861;28;20397;-81
2023/09/06 01:33:53;;;;;;;0.47;0.40;;;;;;;21.97;43.76;101756.25;4992644;28;20472;-81
2023/09/06 01:36:19;;;;;;;0.60;0.40;;;;;;;22.03;43.74;101762.63;4992609;28;20517;-82
2023/09/06 01:38:45;;;;;;;0.50;0.47;;;;;;;21.99;43.58;101754.16;4974485;28;20900;-81
2023/09/06 01:41:11;;;;;;;0.60;0.50;;;;;;;21.95;43.61;101753.75;4992972;28;20388;-80
2023/09/06 01:43:37;;;;;;;0.80;0.50;;;;;;;21.99;43.50;101759.56;5007874;28;20389;-80
2023/09/06 01:46:03;;;;;;;0.43;0.30;;;;;;;21.94;43.61;101762.06;4992541;28;20390;-81
2023/09/06 01:48:28;;;;;;;0.43;0.40;;;;;;;21.90;43.71;101755.47;4991633;28;20512;-81
2023/09/06 01:50:55;;;;;;;0.40;0.30;;;;;;;21.85;43.79;101766.09;4993176;28;20382;-81
2023/09/06 01:53:22;;;;;;;0.45;0.40;;;;;;;21.63;44.60;101758.38;4991185;28;20445;-80
2023/09/06 01:55:50;;;;;;;0.57;0.40;;;;;;;21.38;45.33;101758.28;4991399;28;20394;-80
2023/09/06 01:58:19;;;;;;;0.52;0.35;;;;;;;21.35;45.32;101764.09;4992574;28;20443;-79
2023/09/06 02:00:45;;;;;;;0.47;0.38;;;;;;;21.36;45.19;101763.91;4992466;28;20390;-82
2023/09/06 02:03:14;;;;;;;0.50;0.50;;;;;;;21.44;45.09;101759.28;4992477;28;20394;-83
2023/09/06 02:05:43;;;;;;;0.35;0.30;;;;;;;21.39;44.91;101766.16;4990766;28;21167;-82
2023/09/06 02:08:09;;;;;;;0.50;0.38;;;;;;;21.39;44.88;101768.00;4992350;28;20393;-82
2023/09/06 02:10:34;;;;;;;0.43;0.40;;;;;;;21.34;45.05;101760.59;4991690;28;20440;-81
2023/09/06 02:13:00;;;;;;;0.60;0.47;;;;;;;21.32;45.02;101759.97;4992332;28;20413;-81
2023/09/06 02:15:26;;;;;;;0.50;0.40;;;;;;;21.28;45.02;101755.22;4992202;28;20385;-81
2023/09/06 02:17:54;;;;;;;0.40;0.40;;;;;;;21.24;45.06;101762.91;4974248;28;20401;-81
2023/09/06 02:20:22;;;;;;;0.33;0.30;;;;;;;21.12;45.42;101754.69;4990809;28;20394;-82
2023/09/06 02:22:51;;;;;;;0.40;0.40;;;;;;;20.75;47.00;101765.19;4992182;28;20389;-83
2023/09/06 02:25:20;;;;;;;0.30;0.30;;;;;;;20.24;48.78;101771.28;4990932;28;20873;-83
2023/09/06 02:27:46;;;;;;;0.30;0.30;;;;;;;20.15;48.89;101772.50;4992005;28;20812;-83
2023/09/06 02:30:12;;;;;;;0.40;0.40;;;;;;;20.12;48.94;101772.94;4990474;28;20390;-83
2023/09/06 02:32:40;;;;;;;0.57;0.30;;;;;;;19.80;49.84;101778.91;4990712;28;20409;-82
2023/09/06 02:35:09;;;;;;;0.38;0.30;;;;;;;19.57;50.40;101779.28;4992094;28;20401;-80
2023/09/06 02:37:35;;;;;;;0.40;0.40;;;;;;;19.60;50.07;101775.34;4991986;28;20473;-81
2023/09/06 02:40:06;;;;;;;0.30;0.30;;;;;;;19.74;49.66;101766.31;4991747;28;20764;-82
2023/09/06 02:42:32;;;;;;;0.30;0.30;;;;;;;19.92;49.01;101764.88;4991734;28;20386;-83
2023/09/06 02:45:00;;;;;;;0.20;0.20;;;;;;;19.87;49.02;101760.09;4991367;28;20814;-82
2023/09/06 02:47:28;;;;;;;0.20;0.20;;;;;;;20.01;48.60;101766.31;4991689;28;20497;-82
2023/09/06 02:49:55;;;;;;;0.30;0.30;;;;;;;19.96;48.68;101761.53;4989827;28;20405;-83
2023/09/06 02:52:30;;;;;;;0.40;0.40;;;;;;;19.89;48.95;101760.72;4990907;28;20413;-83
2023/09/06 02:55:10;;;;;;;1.10;0.95;;;;;;;19.83;49.14;101765.06;4989643;28;20811;-82
2023/09/06 02:57:38;;;;;;;0.20;0.20;;;;;;;19.60;49.84;101770.78;4989661;28;20901;-83
2023/09/06 03:00:17;;;;;;;0.20;0.20;;;;;;;19.31;50.83;101763.91;4973523;28;20943;-82
2023/09/06 03:02:43;;;;;;;0.20;0.20;;;;;;;19.25;50.70;101772.78;4992329;28;20397;-82
2023/09/06 03:05:09;;;;;;;0.20;0.20;;;;;;;19.23;51.03;101756.00;4992147;28;20373;-83
2023/09/06 03:07:34;;;;;;;0.15;0.15;;;;;;;19.14;51.43;101773.34;4973812;28;20477;-85
2023/09/06 03:10:00;;;;;;;0.17;0.17;;;;;;;19.18;51.11;101769.25;4973824;28;20421;-83
2023/09/06 03:12:25;;;;;;;0.10;0.10;;;;;;;19.30;50.93;101772.97;4991051;28;20410;-83
2023/09/06 03:14:55;;;;;;;0.20;0.20;;;;;;;19.43;50.23;101774.91;4994866;28;20388;-84
2023/09/06 03:17:22;;;;;;;0.20;0.20;;;;;;;19.49;50.02;101766.84;5002001;28;20402;-83
2023/09/06 03:19:53;;;;;;;0.20;0.20;;;;;;;19.43;50.23;101767.66;5004656;28;20494;-84
2023/09/06 03:22:21;;;;;;;0.10;0.10;;;;;;;19.39;50.21;101779.00;4999886;28;20916;-81
2023/09/06 03:24:48;;;;;;;0.30;0.30;;;;;;;19.44;49.97;101772.00;5001802;28;20393;-81
2023/09/06 03:27:17;;;;;;;0.30;0.30;;;;;;;19.51;50.08;101771.19;5000557;28;20393;-83
2023/09/06 03:29:50;;;;;;;0.10;0.10;;;;;;;19.41;50.31;101771.56;4999793;28;20396;-82
2023/09/06 03:32:17;;;;;;;0.25;0.25;;;;;;;19.33;50.62;101769.91;4985290;28;20404;-81
2023/09/06 03:34:45;;;;;;;0.20;0.20;;;;;;;19.42;50.07;101774.06;5000175;28;20486;-80
2023/09/06 03:37:12;;;;;;;0.30;0.30;;;;;;;19.46;50.21;101787.94;4993795;28;20412;-82
2023/09/06 03:39:41;;;;;;;0.20;0.20;;;;;;;19.40;50.16;101786.88;5003981;28;20471;-81
2023/09/06 03:42:08;;;;;;;0.22;0.22;;;;;;;19.31;50.35;101788.09;5001563;28;20454;-83
2023/09/06 03:44:38;;;;;;;1.25;0.40;;;;;;;19.02;51.62;101787.38;5008316;28;20392;-83
2023/09/06 03:47:13;;;;;;;0.10;0.10;;;;;;;19.02;51.56;101798.13;4981142;28;20468;-83
2023/09/06 03:49:43;;;;;;;0.17;0.17;;;;;;;19.22;50.92;101795.50;5005592;28;20398;-84
2023/09/06 03:52:12;;;;;;;0.10;0.10;;;;;;;19.26;50.69;101799.44;4995594;28;20934;-83
2023/09/06 03:54:59;;;;;;;0.20;0.20;;;;;;;19.31;50.64;101792.66;5007846;28;20723;-83
2023/09/06 03:57:25;;;;;;;0.30;0.30;;;;;;;19.33;50.62;101801.34;5001142;28;20463;-83
2023/09/06 03:59:53;;;;;;;0.30;0.30;;;;;;;19.27;50.73;101798.44;4993041;28;20392;-83
2023/09/06 04:02:27;;;;;;;0.50;0.25;;;;;;;19.06;51.39;101796.69;4992023;28;20390;-82
2023/09/06 04:04:52;;;;;;;0.27;0.27;;;;;;;18.95;51.88;101804.50;4995328;28;20947;-82
2023/09/06 04:07:18;;;;;;;0.70;0.60;;;;;;;19.04;51.61;101805.97;4994095;28;20406;-84
2023/09/06 04:09:47;;;;;;;0.10;0.10;;;;;;;18.98;51.78;101802.22;4994072;28;20481;-83
2023/09/06 04:14:43;;;;;;;0.10;0.10;;;;;;;18.71;53.03;101811.97;5031320;28;20457;-82
2023/09/06 04:17:11;;;;;;;0.20;0.20;;;;;;;18.55;53.30;101810.41;5015576;28;20864;-82
2023/09/06 04:19:39;;;;;;;0.28;0.28;;;;;;;18.36;53.74;101817.28;5034142;28;20393;-81
2023/09/06 04:22:07;;;;;;;0.20;0.20;;;;;;;18.19;54.21;101807.88;5034187;28;20811;-81
2023/09/06 04:24:35;;;;;;;0.30;0.30;;;;;;;18.28;53.97;101817.44;5016364;28;20769;-85
2023/09/06 04:27:00;;;;;;;0.30;0.30;;;;;;;18.46;53.37;101816.97;5018705;28;20435;-84
2023/09/06 04:29:26;;;;;;;0.30;0.30;;;;;;;18.45;53.30;101813.44;5013497;28;20778;-83
2023/09/06 04:31:51;;;;;;;1.42;0.50;;;;;;;18.52;53.20;101825.06;5014035;28;20410;-84
2023/09/06 04:34:18;;;;;;;0.37;0.37;;;;;;;18.69;52.55;101814.00;5013719;28;20775;-83
2023/09/06 04:36:43;;;;;;;0.40;0.30;;;;;;;18.85;52.12;101824.50;5013925;28;20391;-81
2023/09/06 04:39:09;;;;;;;0.30;0.20;;;;;;;18.79;52.33;101817.19;5013917;28;20395;-82
2023/09/06 04:41:36;;;;;;;0.53;0.50;;;;;;;18.84;52.37;101822.81;5013389;28;20877;-80
2023/09/06 04:44:02;;;;;;;0.30;0.30;;;;;;;18.88;52.28;101815.19;5012117;28;20489;-82
2023/09/06 04:46:32;;;;;;;0.40;0.30;;;;;;;18.80;52.56;101824.22;5014018;28;20524;-79
2023/09/06 04:48:58;;;;;;;0.40;0.30;;;;;;;18.83;52.54;101825.69;5012391;28;20427;-80
2023/09/06 04:51:27;;;;;;;0.33;0.30;;;;;;;18.72;52.75;101822.50;5013313;28;20462;-80
2023/09/06 04:53:57;;;;;;;0.80;0.55;;;;;;;18.51;53.32;101834.16;5013798;28;20392;-81
2023/09/06 04:56:25;;;;;;;0.40;0.40;;;;;;;18.28;53.96;101833.56;5013063;28;20475;-81
2023/09/06 04:58:51;;;;;;;0.60;0.47;;;;;;;18.48;53.51;101834.53;5013350;28;20420;-79
2023/09/06 05:01:16;;;;;;;0.57;0.47;;;;;;;18.54;53.40;101823.00;5026660;28;20769;-80
2023/09/06 05:03:42;;;;;;;0.40;0.30;;;;;;;18.77;52.91;101838.03;5033028;28;20414;-80
2023/09/06 05:06:09;;;;;;;0.75;0.50;;;;;;;18.82;52.69;101832.94;5022313;28;20426;-83
2023/09/06 05:08:35;;;;;;;0.45;0.45;;;;;;;18.86;52.55;101844.94;5011613;28;20438;-82
2023/09/06 05:11:00;;;;;;;1.10;0.60;;;;;;;18.89;52.51;101841.88;5011264;28;20403;-81
2023/09/06 05:13:26;;;;;;;0.20;0.20;;;;;;;18.95;52.53;101852.84;5010941;28;20946;-81
2023/09/06 05:15:51;;;;;;;0.20;0.20;;;;;;;19.04;52.26;101844.44;5012787;28;20391;-80
2023/09/06 05:18:19;;;;;;;0.20;0.20;;;;;;;19.06;52.19;101854.97;5012479;28;20384;-80
2023/09/06 05:20:45;;;;;;;0.50;0.50;;;;;;;19.07;52.03;101851.28;4994997;28;20462;-82
2023/09/06 05:23:13;;;;;;;0.50;0.30;;;;;;;19.22;51.73;101854.66;5012920;28;20442;-81
2023/09/06 05:25:41;;;;;;;0.38;0.30;;;;;;;19.41;51.31;101854.91;5012834;28;20387;-83
2023/09/06 05:28:09;;;;;;;0.30;0.30;;;;;;;19.55;50.98;101864.69;5011586;28;20392;-82
2023/09/06 05:30:43;;;;;;;0.20;0.20;;;;;;;19.70;50.55;101861.03;4995457;28;20434;-83
2023/09/06 05:33:09;;;;;;;0.38;0.30;;;;;;;19.60;50.85;101869.50;4994157;28;20415;-81
2023/09/06 05:35:35;;;;;;;0.20;0.20;;;;;;;19.70;50.78;101869.94;4994591;28;20790;-82
2023/09/06 05:38:04;;;;;;;0.45;0.40;;;;;;;19.67;50.86;101867.66;5027192;28;20445;-82
2023/09/06 05:40:35;;;;;;;0.50;0.47;;;;;;;19.66;51.19;101874.06;4994697;28;20395;-83
2023/09/06 05:43:33;;;;;;;0.53;0.47;;;;;;;19.70;51.42;101869.94;5010487;28;20407;-84
2023/09/06 05:45:58;;;;;;;0.63;0.57;;;;;;;19.86;51.07;101869.59;5010959;28;20957;-82
2023/09/06 05:48:24;;;;;;;0.50;0.50;;;;;;;19.94;51.28;101868.56;5011935;28;20391;-82
2023/09/06 05:50:52;;;;;;;0.63;0.63;;;;;;;19.99;51.22;101866.09;5012565;28;20403;-82
2023/09/06 05:53:19;;;;;;;0.50;0.50;;;;;;;19.93;52.33;101866.09;4961665;28;20411;-81
2023/09/06 05:55:44;;;;;;;0.63;0.60;;;;;;;19.97;52.62;101862.78;5010812;28;20821;-80
2023/09/06 05:58:14;;;;;;;0.33;0.30;;;;;;;20.08;52.83;101869.44;5011819;28;20380;-83
2023/09/06 06:00:41;;;;;;;0.55;0.50;;;;;;;20.20;53.14;101866.94;4993198;28;20407;-81
2023/09/06 06:03:07;;;;;;;0.60;0.40;;;;;;;20.36;53.11;101873.81;5011586;28;20403;-81
2023/09/06 06:05:34;;;;;;;0.70;0.50;;;;;;;20.47;52.96;101862.41;5007782;28;20396;-86
2023/09/06 06:08:02;;;;;;;0.43;0.43;;;;;;;20.50;53.32;101853.09;5009268;28;20424;-84
2023/09/06 06:10:34;;;;;;;0.45;0.40;;;;;;;20.61;53.13;101866.78;5009204;28;20960;-79
2023/09/06 06:12:59;;;;;;;0.63;0.60;;;;;;;20.77;53.16;101856.59;5017263;28;20432;-78
2023/09/06 06:15:25;;;;;;;0.30;0.30;;;;;;;20.87;53.49;101859.72;4991643;28;20768;-81
2023/09/06 06:17:51;;;;;;;0.30;0.30;;;;;;;20.81;53.63;101864.06;4992089;28;20516;-81
2023/09/06 06:20:17;;;;;;;0.70;0.50;;;;;;;20.79;54.15;101866.13;4974380;28;20484;-78
2023/09/06 06:22:43;;;;;;;0.60;0.45;;;;;;;20.97;53.70;101865.47;4991877;28;20404;-81
2023/09/06 06:25:11;;;;;;;0.63;0.40;;;;;;;21.17;53.15;101865.41;4990561;28;20452;-80
2023/09/06 06:27:38;;;;;;;0.40;0.40;;;;;;;21.22;52.88;101862.09;4972757;28;20418;-79
2023/09/06 06:30:08;;;;;;;0.30;0.30;;;;;;;21.36;52.58;101857.47;4973539;28;20484;-80
2023/09/06 06:32:34;;;;;;;0.50;0.30;;;;;;;21.60;51.97;101866.72;4987425;28;20422;-79
2023/09/06 06:35:20;;;;;;;0.98;0.40;;;;;;;21.89;51.30;101862.59;4973604;28;20396;-81
2023/09/06 06:37:49;;;;;;;1.48;0.47;;;;;;;22.18;49.76;101860.31;4972111;28;20491;-81
2023/09/06 06:40:16;;;;;;;0.50;0.50;;;;;;;22.42;48.73;101874.94;4989333;28;20394;-81
2023/09/06 06:42:44;;;;;;;0.30;0.30;;;;;;;22.53;47.64;101874.22;4973828;28;20907;-78
2023/09/06 06:45:10;;;;;;;0.40;0.40;;;;;;;22.60;46.12;101866.06;4973991;28;20804;-80
2023/09/06 06:47:36;;;;;;;0.25;0.25;;;;;;;22.81;46.22;101872.09;4989040;28;20606;-79
2023/09/06 06:50:06;;;;;;;0.50;0.43;;;;;;;23.06;46.19;101872.88;4990572;28;20382;-80
2023/09/06 06:52:33;;;;;;;0.38;0.38;;;;;;;23.19;45.30;101882.75;4995482;28;20938;-81
2023/09/06 06:54:59;;;;;;;0.20;0.20;;;;;;;23.35;45.01;101869.63;5010274;28;20376;-79
2023/09/06 06:57:24;;;;;;;0.10;0.10;;;;;;;23.50;44.06;101880.06;5009906;28;20426;-80
2023/09/06 06:59:53;;;;;;;0.20;0.20;;;;;;;23.58;43.60;101869.75;5002641;28;20832;-79
2023/09/06 07:02:19;;;;;;;0.20;0.20;;;;;;;23.80;43.64;101872.81;4991303;28;20388;-80
2023/09/06 07:04:45;;;;;;;0.30;0.30;;;;;;;23.84;43.81;101871.31;4990462;28;20378;-80
2023/09/06 07:07:12;;;;;;;0.20;0.20;;;;;;;23.88;43.91;101870.81;4989289;28;20397;-80
2023/09/06 07:09:38;;;;;;;1.13;1.02;;;;;;;24.05;43.66;101869.09;4972946;28;20442;-81
2023/09/06 07:12:04;;;;;;;0.50;0.50;;;;;;;24.14;43.82;101872.31;4990874;28;20488;-80
2023/09/06 07:14:29;;;;;;;0.40;0.40;;;;;;;24.23;43.49;101862.78;4991466;28;20414;-80
2023/09/06 07:16:58;;;;;;;0.20;0.20;;;;;;;24.37;43.44;101875.06;4990879;28;20405;-79
2023/09/06 07:19:24;;;;;;;0.20;0.20;;;;;;;24.50;43.26;101873.19;4989956;28;20409;-80
2023/09/06 07:21:54;;;;;;;0.55;0.55;;;;;;;24.67;42.98;101867.91;4989589;28;20397;-80
2023/09/06 07:24:22;;;;;;;0.20;0.20;;;;;;;24.79;42.88;101858.72;4991066;28;20392;-80
2023/09/06 07:26:48;;;;;;;0.70;0.70;;;;;;;24.83;42.87;101855.50;4989723;28;20394;-81
2023/09/06 07:29:19;;;;;;;0.80;0.80;;;;;;;24.94;42.73;101862.84;4990983;28;20448;-81
2023/09/06 07:31:48;;;;;;;1.50;0.60;;;;;;;25.02;41.90;101856.22;4973820;28;20579;-80
2023/09/06 07:34:15;;;;;;;0.93;0.57;;;;;;;25.23;41.61;101865.56;4991343;28;20469;-80
2023/09/06 07:36:54;;;;;;;0.20;0.20;;;;;;;25.31;40.09;101863.34;4990085;28;20481;-81
2023/09/06 07:39:28;;;;;;;0.40;0.40;;;;;;;25.38;40.25;101855.88;4973938;28;20872;-80
2023/09/06 07:41:57;;;;;;;1.00;0.90;;;;;;;25.41;40.15;101859.19;4973706;28;20394;-80
2023/09/06 07:44:23;;;;;;;0.25;0.25;;;;;;;25.47;39.68;101853.63;4991098;28;20913;-80
2023/09/06 07:46:49;;;;;;;0.23;0.20;;;;;;;25.65;39.04;101855.31;4990613;28;20900;-80
2023/09/06 07:49:17;;;;;;;0.10;0.10;;;;;;;25.76;39.18;101853.59;4991129;28;20453;-80
2023/09/06 07:51:42;;;;;;;0.20;0.20;;;;;;;25.76;38.97;101851.69;4991390;28;20400;-81
2023/09/06 07:54:09;;;;;;;0.50;0.50;;;;;;;25.90;38.45;101856.84;4973333;28;20410;-81
2023/09/06 07:56:36;;;;;;;0.40;0.40;;;;;;;25.97;38.86;101854.00;4990980;28;20394;-80
2023/09/06 07:59:05;;;;;;;0.30;0.30;;;;;;;25.89;39.16;101863.34;4991408;28;20390;-79
2023/09/06 08:01:32;;;;;;;0.10;0.10;;;;;;;25.91;39.06;101861.19;4974754;28;20386;-81
2023/09/06 08:03:59;;;;;;;0.17;0.17;;;;;;;25.88;37.54;101861.69;4968909;28;20400;-81
2023/09/06 08:06:25;;;;;;;0.30;0.30;;;;;;;26.08;37.81;101864.78;4968117;28;20467;-80
2023/09/06 08:08:51;;;;;;;0.40;0.40;;;;;;;26.13;37.92;101869.50;4983969;28;20411;-83
2023/09/06 08:11:21;;;;;;;0.20;0.20;;;;;;;26.15;37.76;101863.81;4920620;28;20407;-80
2023/09/06 08:13:47;;;;;;;0.10;0.10;;;;;;;26.30;37.81;101870.31;4983999;28;20459;-81
2023/09/06 08:16:14;;;;;;;0.40;0.40;;;;;;;26.39;38.04;101867.19;4982969;28;20505;-81
2023/09/06 08:18:40;;;;;;;0.32;0.32;;;;;;;26.45;37.56;101858.88;4930212;29;20818;-80
2023/09/06 08:21:07;;;;;;;0.20;0.20;;;;;;;26.49;36.91;101867.34;4930632;29;20386;-80
2023/09/06 08:23:34;;;;;;;0.10;0.10;;;;;;;26.56;36.63;101865.28;4930555;29;20407;-78
2023/09/06 08:26:00;;;;;;;0.10;0.10;;;;;;;26.69;36.60;101866.84;4930386;29;20478;-80
2023/09/06 08:28:26;;;;;;;0.20;0.20;;;;;;;26.76;35.86;101863.94;4930230;29;20408;-79
2023/09/06 08:30:51;;;;;;;0.10;0.10;;;;;;;26.69;35.93;101866.84;4930413;29;20803;-84
2023/09/06 08:33:17;;;;;;;0.20;0.20;;;;;;;26.72;35.51;101869.06;4946209;29;20414;-79
2023/09/06 08:35:45;;;;;;;0.30;0.30;;;;;;;26.86;35.65;101864.06;4946159;29;20393;-80
2023/09/06 08:38:13;;;;;;;0.20;0.20;;;;;;;27.00;35.00;101862.63;4934040;29;20476;-79
2023/09/06 08:40:40;;;;;;;0.27;0.27;;;;;;;26.99;33.71;101860.16;4950162;29;20401;-79
2023/09/06 08:43:10;;;;;;;0.10;0.10;;;;;;;26.94;33.57;101868.25;4949578;29;20434;-80
2023/09/06 08:45:39;;;;;;;0.22;0.22;;;;;;;26.81;32.99;101864.84;4934136;29;20412;-80
2023/09/06 08:48:05;;;;;;;0.40;0.40;;;;;;;26.88;32.62;101868.22;4919521;29;20987;-79
2023/09/06 08:50:33;;;;;;;1.30;0.50;;;;;;;27.07;33.07;101857.00;5003350;28;20480;-79
2023/09/06 08:53:00;;;;;;;0.17;0.17;;;;;;;27.07;32.47;101868.72;4977338;28;20420;-80
2023/09/06 08:55:26;;;;;;;0.10;0.10;;;;;;;26.97;32.17;101854.16;4976748;28;20888;-81
2023/09/06 08:57:53;;;;;;;0.60;0.35;;;;;;;27.00;32.27;101859.91;4993030;28;20390;-80
2023/09/06 09:00:23;;;;;;;0.10;0.10;;;;;;;26.94;31.59;101855.50;4993134;28;20429;-80
2023/09/06 09:02:51;;;;;;;0.30;0.30;;;;;;;27.04;31.92;101854.78;4976673;28;20405;-80
2023/09/06 09:05:19;;;;;;;0.35;0.20;;;;;;;27.18;32.04;101857.97;4976660;28;20401;-80
2023/09/06 09:07:56;;;;;;;0.30;0.30;;;;;;;27.15;31.40;101853.00;4976691;28;20888;-79
2023/09/06 09:10:25;;;;;;;0.23;0.23;;;;;;;27.26;31.86;101857.50;4975496;28;20405;-80
2023/09/06 09:12:52;;;;;;;0.40;0.40;;;;;;;27.44;32.10;101856.38;4976186;28;20436;-80
2023/09/06 09:15:21;;;;;;;1.00;0.60;;;;;;;27.39;31.71;101857.16;4994035;28;20477;-81
2023/09/06 09:17:50;;;;;;;0.40;0.40;;;;;;;27.19;31.69;101852.25;4992810;28;20405;-78
2023/09/06 09:20:18;;;;;;;1.30;0.40;;;;;;;27.24;31.31;101854.22;4994091;28;20389;-81
2023/09/06 09:22:45;;;;;;;0.27;0.20;;;;;;;27.29;31.53;101850.78;4976347;28;20388;-79
2023/09/06 09:25:17;;;;;;;0.32;0.20;;;;;;;27.11;31.31;101849.97;4976514;28;20441;-80
2023/09/06 09:28:01;;;;;;;0.20;0.20;;;;;;;27.33;31.58;101849.19;4991842;28;20397;-79
2023/09/06 09:30:33;;;;;;;0.20;0.20;;;;;;;27.43;31.71;101841.13;4992451;28;20447;-80
2023/09/06 09:33:01;;;;;;;0.10;0.10;;;;;;;27.50;31.99;101835.50;4992707;28;20418;-80
2023/09/06 09:35:47;;;;;;;0.30;0.30;;;;;;;27.61;31.87;101831.78;4992745;28;20401;-78
2023/09/06 09:38:15;;;;;;;0.20;0.20;;;;;;;27.56;31.63;101832.53;4943040;28;20398;-79
2023/09/06 09:40:40;;;;;;;0.45;0.40;;;;;;;27.74;31.51;101833.25;4993482;28;20382;-79
2023/09/06 09:43:14;;;;;;;0.27;0.27;;;;;;;27.67;31.46;101827.19;4993466;28;20397;-82
2023/09/06 09:45:45;;;;;;;0.90;0.60;;;;;;;27.67;31.53;101829.91;4975801;28;20402;-81
2023/09/06 09:48:12;;;;;;;0.52;0.32;;;;;;;27.70;31.56;101826.69;4975907;28;20398;-80
2023/09/06 09:50:41;;;;;;;0.60;0.60;;;;;;;27.63;31.64;101827.69;4992790;28;20400;-78
2023/09/06 09:53:09;;;;;;;0.60;0.60;;;;;;;27.31;31.24;101816.75;4976270;28;20485;-80
2023/09/06 09:55:41;;;;;;;0.13;0.13;;;;;;;27.31;31.30;101822.19;4975870;28;20390;-79
2023/09/06 09:58:11;;;;;;;0.20;0.20;;;;;;;27.55;31.45;101824.63;4975660;28;20410;-80
2023/09/06 10:00:39;;;;;;;0.10;0.10;;;;;;;27.63;31.43;101810.53;4992630;28;20385;-80
2023/09/06 10:03:05;;;;;;;0.20;0.20;;;;;;;27.78;31.76;101807.94;4975538;28;20484;-79
2023/09/06 10:05:31;;;;;;;0.20;0.20;;;;;;;27.64;31.06;101807.56;4975926;28;20823;-79
2023/09/06 10:07:57;;;;;;;0.10;0.10;;;;;;;27.67;31.26;101819.03;4993444;28;20381;-79
2023/09/06 10:10:24;;;;;;;0.17;0.17;;;;;;;27.79;31.39;101806.06;4992119;28;20390;-80
2023/09/06 10:12:51;;;;;;;0.20;0.20;;;;;;;27.86;32.04;101806.66;4975375;28;20430;-78
2023/09/06 10:15:23;;;;;;;0.38;0.30;;;;;;;28.01;32.00;101811.44;4991742;28;20398;-79
2023/09/06 10:17:55;;;;;;;0.30;0.30;;;;;;;28.03;32.10;101804.63;4960024;28;20386;-80
2023/09/06 10:20:23;;;;;;;0.30;0.30;;;;;;;27.94;31.38;101811.66;4992916;28;20433;-79
2023/09/06 10:22:58;;;;;;;0.30;0.30;;;;;;;27.95;31.70;101793.41;4992758;28;20390;-81
2023/09/06 10:25:26;;;;;;;0.13;0.13;;;;;;;28.11;31.66;101799.78;4992363;28;20393;-79
2023/09/06 10:27:54;;;;;;;0.30;0.30;;;;;;;28.13;31.83;101794.91;4991204;28;20390;-79
2023/09/06 10:30:51;;;;;;;0.20;0.20;;;;;;;28.07;32.08;101793.22;4991708;28;20401;-79
2023/09/06 10:33:56;;;;;;;0.40;0.40;;;;;;;27.95;31.80;101787.97;4974978;28;20939;-80
2023/09/06 10:36:27;;;;;;;0.57;0.57;;;;;;;28.18;31.77;101793.03;4992275;28;20421;-79
2023/09/06 10:38:52;;;;;;;0.40;0.40;;;;;;;28.19;31.79;101786.47;4992260;28;20413;-80
2023/09/06 10:41:26;;;;;;;0.30;0.30;;;;;;;28.35;31.65;101789.31;4992078;28;20780;-80
2023/09/06 10:43:58;;;;;;;0.35;0.35;;;;;;;28.38;31.50;101802.44;4991086;28;20402;-79
2023/09/06 10:46:30;;;;;;;0.40;0.32;;;;;;;28.27;31.58;101790.66;4992301;28;20425;-78
2023/09/06 10:49:14;;;;;;;0.10;0.10;;;;;;;28.09;31.75;101786.44;4992080;28;20390;-79
2023/09/06 10:52:14;;;;;;;0.20;0.20;;;;;;;28.24;32.21;101784.91;4991946;28;20410;-79
2023/09/06 10:54:42;;;;;;;0.20;0.20;;;;;;;28.32;32.07;101768.84;4975051;28;20417;-80
2023/09/06 10:57:12;;;;;;;0.10;0.10;;;;;;;28.33;32.21;101773.22;4990791;28;20405;-79
2023/09/06 10:59:45;;;;;;;0.20;0.20;;;;;;;28.47;32.28;101770.00;4958300;28;20400;-78
2023/09/06 11:02:23;;;;;;;0.70;0.50;;;;;;;28.31;31.88;101774.59;4990506;28;20404;-79
2023/09/06 11:05:09;;;;;;;0.20;0.20;;;;;;;28.25;32.15;101779.16;4991832;28;20447;-80
2023/09/06 11:07:43;;;;;;;0.30;0.30;;;;;;;28.18;32.29;101778.56;4974351;28;20780;-81
2023/09/06 11:10:17;;;;;;;0.20;0.20;;;;;;;28.38;32.14;101770.53;4991625;28;20401;-78
2023/09/06 11:12:44;;;;;;;0.20;0.20;;;;;;;28.44;31.80;101765.09;4991607;28;20434;-80
2023/09/06 11:15:10;;;;;;;0.30;0.30;;;;;;;28.50;32.17;101759.38;4991369;28;20382;-78
2023/09/06 11:17:36;;;;;;;0.20;0.20;;;;;;;28.61;32.11;101763.00;4991743;28;20389;-79
2023/09/06 11:20:16;;;;;;;0.20;0.20;;;;;;;28.65;32.54;101757.84;4991193;28;20401;-80
2023/09/06 11:22:53;;;;;;;0.20;0.20;;;;;;;28.68;32.44;101760.06;4990205;28;20843;-80
2023/09/06 11:25:21;;;;;;;0.40;0.40;;;;;;;28.55;32.85;101753.19;4991417;28;20392;-79
2023/09/06 11:27:55;;;;;;;0.20;0.20;;;;;;;28.54;32.84;101743.34;4990383;28;20524;-79
2023/09/06 11:30:22;;;;;;;0.10;0.10;;;;;;;28.67;32.66;101739.34;4991617;28;20888;-79
2023/09/06 11:32:55;;;;;;;0.30;0.30;;;;;;;28.55;32.66;101731.34;4973826;28;20501;-81
2023/09/06 11:35:31;;;;;;;0.35;0.20;;;;;;;28.72;32.78;101718.34;4991515;28;20381;-80
2023/09/06 11:37:58;;;;;;;0.20;0.20;;;;;;;28.83;32.64;101730.09;4990396;28;20390;-78